createdAt,value
2023-01-25T00:01:57.595Z,63.80
2023-01-25T00:04:28.326Z,61.90
2023-01-25T00:06:57.601Z,65.80
2023-01-25T00:09:27.708Z,62.30
2023-01-25T00:11:58.579Z,60.30
2023-01-25T00:14:27.852Z,59.80
2023-01-25T00:16:57.355Z,48.30
2023-01-25T00:19:26.555Z,54.50
2023-01-25T00:21:55.578Z,53.40
2023-01-25T00:24:26.064Z,55.50
2023-01-25T00:26:54.865Z,52.80
2023-01-25T00:29:23.549Z,54.60
2023-01-25T00:31:58.135Z,84.20
2023-01-25T00:34:26.990Z,49.30
2023-01-25T00:36:58.177Z,46.90
2023-01-25T00:39:27.688Z,49.60
2023-01-25T00:41:56.404Z,46.00
2023-01-25T00:44:25.090Z,58.60
2023-01-25T00:46:53.673Z,50.60
2023-01-25T00:49:27.829Z,96.10
2023-01-25T00:51:56.271Z,144.90
2023-01-25T00:54:25.906Z,64.30
2023-01-25T00:56:56.717Z,47.20
2023-01-25T00:59:26.123Z,55.00
2023-01-25T01:01:56.137Z,43.50
2023-01-25T01:04:28.003Z,40.60
2023-01-25T01:06:56.892Z,43.10
2023-01-25T01:09:25.793Z,39.20
2023-01-25T01:11:55.390Z,41.70
2023-01-25T01:14:24.797Z,41.50
2023-01-25T01:16:53.378Z,52.40
2023-01-25T01:19:22.068Z,47.70
2023-01-25T01:21:50.650Z,51.00
2023-01-25T01:24:20.356Z,44.50
2023-01-25T01:26:49.050Z,42.70
2023-01-25T01:29:17.881Z,47.10
2023-01-25T01:31:46.526Z,47.60
2023-01-25T01:34:21.364Z,40.70
2023-01-25T01:36:50.143Z,45.00
2023-01-25T01:39:19.240Z,43.20
2023-01-25T01:41:47.825Z,43.10
2023-01-25T01:44:24.456Z,44.10
2023-01-25T01:46:59.952Z,41.30
2023-01-25T01:49:33.756Z,42.50
2023-01-25T01:52:18.112Z,41.60
2023-01-25T01:54:59.905Z,44.30
2023-01-25T01:57:47.858Z,47.80
2023-01-25T02:00:25.948Z,41.30
2023-01-25T02:02:55.464Z,44.70
2023-01-25T02:05:57.427Z,43.70
2023-01-25T02:08:28.214Z,43.40
2023-01-25T02:10:59.378Z,43.80
2023-01-25T02:13:28.404Z,43.80
2023-01-25T02:15:57.306Z,46.70
2023-01-25T02:18:26.188Z,41.50
2023-01-25T02:20:59.234Z,45.90
2023-01-25T02:23:53.714Z,45.90
2023-01-25T02:26:23.827Z,46.40
2023-01-25T02:29:02.675Z,46.70
2023-01-25T02:31:31.395Z,48.10
2023-01-25T02:34:01.808Z,45.80
2023-01-25T02:36:33.582Z,46.40
2023-01-25T02:39:20.270Z,45.70
2023-01-25T02:41:49.491Z,44.80
2023-01-25T02:44:29.554Z,49.90
2023-01-25T02:46:58.679Z,51.80
2023-01-25T02:49:27.427Z,51.40
2023-01-25T02:51:57.704Z,44.90
2023-01-25T02:54:27.153Z,45.00
2023-01-25T02:56:57.170Z,44.90
2023-01-25T02:59:26.882Z,45.20
2023-01-25T03:01:58.953Z,45.70
2023-01-25T03:04:27.841Z,44.40
2023-01-25T03:06:56.734Z,41.50
2023-01-25T03:09:25.627Z,42.40
2023-01-25T03:11:55.038Z,38.50
2023-01-25T03:14:24.047Z,37.70
2023-01-25T03:16:52.814Z,35.20
2023-01-25T03:19:23.445Z,40.00
2023-01-25T03:21:52.130Z,39.50
2023-01-25T03:24:21.073Z,38.90
2023-01-25T03:27:09.266Z,39.10
2023-01-25T03:29:50.253Z,41.80
2023-01-25T03:32:22.860Z,39.80
2023-01-25T03:34:51.920Z,40.50
2023-01-25T03:37:21.880Z,43.00
2023-01-25T03:39:50.531Z,42.70
2023-01-25T03:42:22.354Z,39.10
2023-01-25T03:44:55.162Z,43.70
2023-01-25T03:47:24.390Z,43.90
2023-01-25T03:49:53.458Z,41.80
2023-01-25T03:52:24.499Z,39.30
2023-01-25T03:54:53.187Z,45.00
2023-01-25T03:57:21.977Z,43.90
2023-01-25T03:59:58.147Z,42.10
2023-01-25T04:02:27.428Z,47.40
2023-01-25T04:04:57.354Z,39.50
2023-01-25T04:07:26.041Z,43.80
2023-01-25T04:09:55.140Z,41.30
2023-01-25T04:12:23.728Z,48.20
2023-01-25T04:14:52.306Z,46.50
2023-01-25T04:17:23.565Z,49.50
2023-01-25T04:20:13.866Z,52.00
2023-01-25T04:22:42.636Z,50.30
2023-01-25T04:25:11.735Z,49.50
2023-01-25T04:27:44.720Z,46.20
2023-01-25T04:30:16.453Z,41.40
2023-01-25T04:32:46.536Z,43.00
2023-01-25T04:35:22.663Z,42.20
2023-01-25T04:37:57.552Z,43.90
2023-01-25T04:40:28.127Z,45.00
2023-01-25T04:42:57.700Z,47.20
2023-01-25T04:45:27.039Z,48.50
2023-01-25T04:47:59.497Z,44.10
2023-01-25T04:50:28.543Z,43.00
2023-01-25T04:52:57.802Z,46.30
2023-01-25T04:55:27.310Z,46.90
2023-01-25T04:57:56.421Z,51.20
2023-01-25T05:00:25.298Z,51.30
2023-01-25T05:02:54.883Z,54.10
2023-01-25T05:05:23.700Z,53.00
2023-01-25T05:07:52.792Z,57.40
2023-01-25T05:10:21.976Z,55.20
2023-01-25T05:13:13.734Z,78.30
2023-01-25T05:15:42.618Z,79.50
2023-01-25T05:18:11.397Z,70.80
2023-01-25T05:20:40.189Z,65.00
2023-01-25T05:23:08.978Z,80.50
2023-01-25T05:25:56.404Z,88.50
2023-01-25T05:28:29.699Z,109.50
2023-01-25T05:31:23.407Z,108.80
2023-01-25T05:33:52.365Z,98.40
2023-01-25T05:36:21.768Z,100.40
2023-01-25T05:38:50.455Z,89.80
2023-01-25T05:41:19.502Z,92.20
2023-01-25T05:43:49.677Z,107.20
2023-01-25T05:46:18.498Z,83.10
2023-01-25T05:48:48.643Z,70.40
2023-01-25T05:51:17.882Z,73.80
2023-01-25T05:53:46.681Z,71.70
2023-01-25T05:56:15.568Z,60.70
2023-01-25T05:58:44.455Z,57.90
2023-01-25T06:01:13.452Z,43.50
2023-01-25T06:03:48.314Z,48.90
2023-01-25T06:06:17.807Z,49.80
2023-01-25T06:08:47.602Z,41.60
2023-01-25T06:11:21.920Z,44.50
2023-01-25T06:13:51.878Z,46.00
2023-01-25T06:16:22.471Z,43.60
2023-01-25T06:19:06.876Z,46.90
2023-01-25T06:22:09.608Z,50.40
2023-01-25T06:24:38.293Z,49.50
2023-01-25T06:27:06.980Z,43.50
2023-01-25T06:29:36.692Z,44.70
2023-01-25T06:32:05.345Z,39.30
2023-01-25T06:34:33.861Z,40.10
2023-01-25T06:37:02.877Z,38.80
2023-01-25T06:39:31.528Z,39.90
2023-01-25T06:42:00.373Z,38.00
2023-01-25T06:44:30.247Z,42.90
2023-01-25T06:46:58.890Z,41.10
2023-01-25T06:49:27.642Z,40.30
2023-01-25T06:51:56.612Z,38.90
2023-01-25T06:54:25.097Z,40.80
2023-01-25T06:56:53.986Z,43.40
2023-01-25T06:59:22.579Z,40.20
2023-01-25T07:01:51.389Z,43.60
2023-01-25T07:04:20.156Z,52.30
2023-01-25T07:06:48.840Z,52.10
2023-01-25T07:09:18.341Z,51.90
2023-01-25T07:11:46.927Z,191.60
2023-01-25T07:14:15.510Z,303.20
2023-01-25T07:16:43.995Z,127.50
2023-01-25T07:19:15.565Z,79.80
2023-01-25T07:21:44.259Z,57.60
2023-01-25T07:24:20.078Z,50.40
2023-01-25T07:26:49.610Z,60.70
2023-01-25T07:29:18.281Z,62.30
2023-01-25T07:31:47.530Z,52.90
2023-01-25T07:34:16.684Z,53.70
2023-01-25T07:36:46.910Z,47.70
2023-01-25T07:39:15.794Z,47.00
2023-01-25T07:41:44.380Z,46.30
2023-01-25T07:44:19.526Z,53.70
2023-01-25T07:46:55.326Z,64.10
2023-01-25T07:49:23.826Z,79.00
2023-01-25T07:51:52.845Z,64.90
2023-01-25T07:54:21.533Z,54.30
2023-01-25T07:56:50.225Z,54.40
2023-01-25T07:59:18.814Z,52.20
2023-01-25T08:01:47.422Z,76.20
2023-01-25T08:04:16.075Z,67.20
2023-01-25T08:06:46.822Z,76.00
2023-01-25T08:09:20.236Z,75.40
2023-01-25T08:11:53.824Z,60.30
2023-01-25T08:14:22.397Z,54.20
2023-01-25T08:16:50.982Z,77.50
2023-01-25T08:19:20.639Z,82.30
2023-01-25T08:21:49.479Z,91.10
2023-01-25T08:24:20.785Z,70.90
2023-01-25T08:26:49.415Z,71.70
2023-01-25T08:29:18.117Z,71.90
2023-01-25T08:31:46.794Z,62.80
2023-01-25T08:34:15.790Z,53.90
2023-01-25T08:36:44.371Z,58.70
2023-01-25T08:39:13.573Z,59.90
2023-01-25T08:41:43.089Z,59.30
2023-01-25T08:44:12.373Z,58.10
2023-01-25T08:46:41.065Z,59.60
2023-01-25T08:49:11.030Z,60.80
2023-01-25T08:51:39.768Z,55.70
2023-01-25T08:54:13.022Z,56.00
2023-01-25T08:56:42.733Z,57.70
2023-01-25T08:59:13.141Z,61.20
2023-01-25T09:01:41.995Z,55.90
2023-01-25T09:04:10.790Z,56.60
2023-01-25T09:06:39.487Z,56.90
2023-01-25T09:09:08.832Z,57.60
2023-01-25T09:11:38.404Z,54.50
2023-01-25T09:14:07.033Z,54.60
2023-01-25T09:16:35.954Z,59.00
2023-01-25T09:19:05.825Z,46.30
2023-01-25T09:21:35.469Z,39.10
2023-01-25T09:24:06.601Z,40.00
2023-01-25T09:26:40.812Z,39.70
2023-01-25T09:29:11.721Z,40.40
2023-01-25T09:31:43.959Z,45.80
2023-01-25T09:34:16.467Z,50.40
2023-01-25T09:36:45.118Z,46.80
2023-01-25T09:39:14.012Z,53.20
2023-01-25T09:42:22.662Z,53.20
2023-01-25T09:45:35.034Z,46.10
2023-01-25T09:48:31.161Z,42.50
2023-01-25T09:51:30.678Z,39.50
2023-01-25T09:54:00.282Z,38.60
2023-01-25T09:56:37.233Z,34.80
2023-01-25T09:59:16.202Z,34.80
2023-01-25T10:01:57.737Z,34.00
2023-01-25T10:04:34.125Z,36.70
2023-01-25T10:07:31.504Z,38.50
2023-01-25T10:10:06.958Z,44.40
2023-01-25T10:12:39.295Z,49.10
2023-01-25T10:15:24.246Z,39.90
2023-01-25T10:18:05.724Z,37.00
2023-01-25T10:20:51.396Z,47.30
2023-01-25T10:24:02.911Z,37.50
2023-01-25T10:26:39.625Z,36.20
2023-01-25T10:29:22.075Z,33.80
2023-01-25T10:31:54.927Z,38.40
2023-01-25T10:34:35.460Z,33.60
2023-01-25T10:37:19.136Z,36.90
2023-01-25T10:40:21.861Z,32.50
2023-01-25T10:43:06.304Z,33.60
2023-01-25T10:45:34.900Z,38.00
2023-01-25T10:48:09.612Z,40.00
2023-01-25T10:50:47.061Z,37.80
2023-01-25T10:53:27.556Z,44.20
2023-01-25T10:56:05.342Z,39.20
2023-01-25T10:58:34.650Z,36.00
2023-01-25T11:01:07.727Z,37.10
2023-01-25T11:03:40.372Z,32.10
2023-01-25T11:06:09.889Z,33.70
2023-01-25T11:08:43.399Z,35.10
2023-01-25T11:11:26.685Z,31.20
2023-01-25T11:13:55.582Z,32.70
2023-01-25T11:16:24.052Z,30.90
2023-01-25T11:18:55.818Z,32.50
2023-01-25T11:21:28.461Z,31.90
2023-01-25T11:24:04.838Z,31.10
2023-01-25T11:26:36.723Z,31.40
2023-01-25T11:29:21.902Z,31.10
2023-01-25T11:31:54.964Z,27.20
2023-01-25T11:34:29.896Z,25.20
2023-01-25T11:37:56.834Z,26.80
2023-01-25T11:40:44.261Z,31.20
2023-01-25T11:43:47.769Z,30.10
2023-01-25T11:46:31.365Z,28.10
2023-01-25T11:49:20.565Z,30.90
2023-01-25T11:52:22.235Z,28.40
2023-01-25T11:55:10.575Z,25.50
2023-01-25T11:58:19.403Z,27.80
2023-01-25T12:01:11.230Z,23.60
2023-01-25T12:04:18.032Z,24.50
2023-01-25T12:07:04.210Z,31.90
2023-01-25T12:10:25.838Z,33.20
2023-01-25T12:13:03.332Z,29.70
2023-01-25T12:16:08.204Z,24.80
2023-01-25T12:18:42.598Z,22.50
2023-01-25T12:22:00.747Z,24.20
2023-01-25T12:24:41.525Z,23.10
2023-01-25T12:27:43.882Z,25.10
2023-01-25T12:30:43.865Z,21.40
2023-01-25T12:33:15.870Z,25.10
2023-01-25T12:35:54.179Z,22.20
2023-01-25T12:38:25.220Z,23.70
2023-01-25T12:41:11.620Z,24.10
2023-01-25T12:43:50.670Z,23.60
2023-01-25T12:46:30.007Z,25.10
2023-01-25T12:49:07.178Z,25.50
2023-01-25T12:51:43.216Z,24.00
2023-01-25T12:54:33.836Z,24.40
2023-01-25T12:57:26.587Z,25.40
2023-01-25T13:00:29.711Z,24.40
2023-01-25T13:03:34.103Z,23.20
2023-01-25T13:06:26.753Z,23.40
2023-01-25T13:09:04.356Z,28.40
2023-01-25T13:11:41.933Z,40.90
2023-01-25T13:14:16.368Z,22.90
2023-01-25T13:17:08.453Z,20.80
2023-01-25T13:19:42.391Z,25.20
2023-01-25T13:22:13.597Z,31.10
2023-01-25T13:25:06.717Z,28.70
2023-01-25T13:27:36.837Z,24.90
2023-01-25T13:30:52.604Z,30.40
2023-01-25T13:33:36.021Z,24.00
2023-01-25T13:36:45.860Z,25.80
2023-01-25T13:39:29.347Z,24.30
2023-01-25T13:42:03.256Z,23.80
2023-01-25T13:44:35.404Z,25.60
2023-01-25T13:47:07.286Z,29.00
2023-01-25T13:49:48.567Z,24.20
2023-01-25T13:52:20.912Z,25.80
2023-01-25T13:54:54.353Z,25.00
2023-01-25T13:57:29.136Z,23.30
2023-01-25T14:00:17.158Z,26.00
2023-01-25T14:02:55.836Z,24.90
2023-01-25T14:05:26.222Z,26.40
2023-01-25T14:07:57.404Z,26.60
2023-01-25T14:10:28.168Z,30.10
2023-01-25T14:13:00.787Z,28.40
2023-01-25T14:15:33.453Z,33.40
2023-01-25T14:18:19.543Z,30.50
2023-01-25T14:20:51.902Z,28.60
2023-01-25T14:23:29.355Z,27.10
2023-01-25T14:26:00.070Z,33.10
2023-01-25T14:28:30.114Z,33.80
2023-01-25T14:31:01.899Z,33.10
2023-01-25T14:33:44.797Z,31.50
2023-01-25T14:36:25.271Z,29.40
2023-01-25T14:38:56.155Z,30.80
2023-01-25T14:41:59.206Z,38.70
2023-01-25T14:44:30.549Z,46.80
2023-01-25T14:47:33.115Z,47.10
2023-01-25T14:50:32.828Z,41.70
2023-01-25T14:53:15.856Z,44.30
2023-01-25T14:55:46.635Z,44.90
2023-01-25T14:58:24.194Z,42.10
2023-01-25T15:01:03.458Z,45.90
2023-01-25T15:03:32.223Z,43.50
2023-01-25T15:06:04.888Z,37.30
2023-01-25T15:08:39.449Z,39.70
2023-01-25T15:11:49.673Z,35.30
2023-01-25T15:14:22.363Z,38.90
2023-01-25T15:16:51.225Z,34.40
2023-01-25T15:19:31.334Z,35.70
2023-01-25T15:22:01.193Z,35.30
2023-01-25T15:24:30.104Z,34.70
2023-01-25T15:26:58.689Z,33.80
2023-01-25T15:29:27.394Z,32.80
2023-01-25T15:31:56.910Z,34.40
2023-01-25T15:34:35.505Z,38.50
2023-01-25T15:37:04.497Z,37.60
2023-01-25T15:39:33.080Z,35.00
2023-01-25T15:42:01.766Z,29.70
2023-01-25T15:44:30.351Z,32.90
2023-01-25T15:46:59.038Z,32.40
2023-01-25T15:49:31.842Z,33.30
2023-01-25T15:52:00.518Z,33.10
2023-01-25T15:54:28.996Z,31.70
2023-01-25T15:56:59.425Z,35.40
2023-01-25T15:59:29.155Z,30.80
2023-01-25T16:01:57.717Z,31.80
2023-01-25T16:04:26.706Z,30.30
2023-01-25T16:06:55.598Z,29.50
2023-01-25T16:09:29.581Z,33.50
2023-01-25T16:12:01.715Z,29.70
2023-01-25T16:14:31.779Z,33.00
2023-01-25T16:17:05.826Z,33.20
2023-01-25T16:19:34.695Z,29.50
2023-01-25T16:22:03.281Z,39.30
2023-01-25T16:24:31.981Z,38.70
2023-01-25T16:27:01.690Z,43.20
2023-01-25T16:29:30.383Z,42.60
2023-01-25T16:31:59.272Z,41.40
2023-01-25T16:34:28.176Z,45.40
2023-01-25T16:37:00.016Z,45.80
2023-01-25T16:39:28.870Z,35.50
2023-01-25T16:41:58.985Z,32.70
2023-01-25T16:44:27.725Z,32.80
2023-01-25T16:46:56.705Z,40.90
2023-01-25T16:49:27.494Z,33.20
2023-01-25T16:51:57.759Z,35.30
2023-01-25T16:54:27.702Z,29.50
2023-01-25T16:56:56.367Z,37.00
2023-01-25T16:59:25.808Z,39.00
2023-01-25T17:01:54.354Z,33.90
2023-01-25T17:04:23.161Z,37.00
2023-01-25T17:06:53.376Z,31.20
2023-01-25T17:09:24.619Z,42.10
2023-01-25T17:11:55.504Z,78.70
2023-01-25T17:14:24.365Z,143.60
2023-01-25T17:16:53.913Z,134.40
2023-01-25T17:19:23.684Z,83.00
2023-01-25T17:21:52.256Z,38.40
2023-01-25T17:24:22.013Z,51.70
2023-01-25T17:26:55.572Z,36.70
2023-01-25T17:29:24.769Z,34.30
2023-01-25T17:31:54.087Z,36.70
2023-01-25T17:34:23.687Z,33.00
2023-01-25T17:36:52.971Z,36.80
2023-01-25T17:39:21.730Z,41.10
2023-01-25T17:41:51.535Z,43.70
2023-01-25T17:44:23.414Z,35.00
2023-01-25T17:46:52.848Z,28.20
2023-01-25T17:49:22.790Z,29.70
2023-01-25T17:51:51.544Z,28.00
2023-01-25T17:54:20.228Z,69.30
2023-01-25T17:56:49.236Z,61.80
2023-01-25T17:59:17.813Z,42.40
2023-01-25T18:01:46.508Z,44.20
2023-01-25T18:04:17.892Z,34.50
2023-01-25T18:06:46.764Z,29.70
2023-01-25T18:09:15.553Z,25.60
2023-01-25T18:11:44.407Z,23.80
2023-01-25T18:14:17.189Z,25.20
2023-01-25T18:16:45.803Z,39.70
2023-01-25T18:19:14.781Z,34.30
2023-01-25T18:21:43.671Z,20.60
2023-01-25T18:24:15.198Z,22.20
2023-01-25T18:26:44.217Z,27.90
2023-01-25T18:29:31.560Z,26.90
2023-01-25T18:32:01.093Z,23.70
2023-01-25T18:34:29.629Z,26.40
2023-01-25T18:36:59.609Z,22.00
2023-01-25T18:39:28.744Z,19.20
2023-01-25T18:41:57.329Z,24.60
2023-01-25T18:44:26.019Z,28.00
2023-01-25T18:46:54.702Z,20.30
2023-01-25T18:49:23.332Z,16.80
2023-01-25T18:52:08.804Z,20.50
2023-01-25T18:54:40.016Z,26.60
2023-01-25T18:57:10.881Z,25.10
2023-01-25T18:59:41.163Z,20.40
2023-01-25T19:02:16.844Z,20.70
2023-01-25T19:04:46.056Z,28.70
2023-01-25T19:07:15.038Z,31.70
2023-01-25T19:09:44.124Z,30.40
2023-01-25T19:12:12.816Z,28.60
2023-01-25T19:14:41.600Z,25.60
2023-01-25T19:17:10.489Z,27.80
2023-01-25T19:19:39.383Z,26.50
2023-01-25T19:22:07.961Z,24.70
2023-01-25T19:24:36.755Z,23.20
2023-01-25T19:27:05.449Z,21.40
2023-01-25T19:29:34.228Z,23.40
2023-01-25T19:32:03.014Z,20.10
2023-01-25T19:34:31.709Z,31.80
2023-01-25T19:37:00.291Z,46.90
2023-01-25T19:39:29.006Z,89.10
2023-01-25T19:41:57.795Z,83.00
2023-01-25T19:44:27.371Z,125.90
2023-01-25T19:46:55.962Z,48.50
2023-01-25T19:49:24.557Z,35.50
2023-01-25T19:51:53.474Z,28.40
2023-01-25T19:54:24.434Z,26.90
2023-01-25T19:56:53.057Z,24.10
2023-01-25T19:59:25.130Z,19.60
2023-01-25T20:01:54.169Z,21.50
2023-01-25T20:04:24.213Z,22.80
2023-01-25T20:06:53.287Z,23.90
2023-01-25T20:09:28.163Z,26.70
2023-01-25T20:11:58.152Z,24.30
2023-01-25T20:14:26.872Z,23.00
2023-01-25T20:16:55.576Z,21.60
2023-01-25T20:19:24.463Z,20.00
2023-01-25T20:21:53.239Z,28.40
2023-01-25T20:24:22.551Z,21.90
2023-01-25T20:26:52.767Z,46.80
2023-01-25T20:29:22.582Z,37.90
2023-01-25T20:31:51.600Z,68.60
2023-01-25T20:34:23.136Z,34.30
2023-01-25T20:36:51.922Z,48.10
2023-01-25T20:39:23.049Z,43.60
2023-01-25T20:41:53.924Z,40.10
2023-01-25T20:44:22.891Z,40.80
2023-01-25T20:46:52.318Z,22.50
2023-01-25T20:49:21.186Z,19.50
2023-01-25T20:51:50.191Z,35.50
2023-01-25T20:54:20.933Z,126.90
2023-01-25T20:56:50.708Z,118.20
2023-01-25T20:59:19.652Z,63.10
2023-01-25T21:01:48.379Z,58.10
2023-01-25T21:04:17.206Z,98.50
2023-01-25T21:06:45.782Z,199.60
2023-01-25T21:09:14.778Z,90.40
2023-01-25T21:11:43.358Z,65.70
2023-01-25T21:14:11.943Z,29.10
2023-01-25T21:16:40.596Z,69.00
2023-01-25T21:19:09.418Z,106.30
2023-01-25T21:21:38.831Z,40.00
2023-01-25T21:24:09.491Z,50.60
2023-01-25T21:26:38.787Z,102.50
2023-01-25T21:29:08.350Z,84.90
2023-01-25T21:31:40.096Z,40.70
2023-01-25T21:34:10.615Z,36.30
2023-01-25T21:36:39.922Z,31.90
2023-01-25T21:39:09.387Z,27.50
2023-01-25T21:41:38.460Z,36.40
2023-01-25T21:44:25.880Z,32.10
2023-01-25T21:47:28.814Z,38.80
2023-01-25T21:50:02.927Z,39.80
2023-01-25T21:52:36.237Z,43.00
2023-01-25T21:55:06.609Z,48.00
2023-01-25T21:57:35.997Z,55.60
2023-01-25T22:00:06.293Z,43.60
2023-01-25T22:02:35.876Z,48.60
2023-01-25T22:05:06.065Z,50.60
2023-01-25T22:07:34.834Z,47.50
2023-01-25T22:10:04.601Z,43.10
2023-01-25T22:12:33.992Z,34.90
2023-01-25T22:15:03.370Z,30.40
2023-01-25T22:17:32.163Z,38.20
2023-01-25T22:20:01.788Z,27.40
2023-01-25T22:22:30.865Z,22.10
2023-01-25T22:24:59.472Z,24.80
2023-01-25T22:27:50.365Z,26.90
2023-01-25T22:30:19.047Z,26.70
2023-01-25T22:32:47.937Z,29.20
2023-01-25T22:35:17.257Z,29.80
2023-01-25T22:37:46.241Z,34.50
2023-01-25T22:40:15.958Z,36.20
2023-01-25T22:42:45.361Z,23.90
2023-01-25T22:45:14.597Z,35.40
2023-01-25T22:47:43.698Z,35.20
2023-01-25T22:50:13.180Z,21.90
2023-01-25T22:52:42.656Z,23.00
2023-01-25T22:55:11.764Z,25.20
2023-01-25T22:57:41.160Z,25.40
2023-01-25T23:00:11.879Z,22.10
2023-01-25T23:02:41.080Z,34.00
2023-01-25T23:05:10.620Z,42.10
2023-01-25T23:07:39.737Z,43.90
2023-01-25T23:10:10.474Z,47.40
2023-01-25T23:12:39.730Z,37.70
2023-01-25T23:15:15.649Z,42.60
2023-01-25T23:18:04.077Z,40.30
2023-01-25T23:20:33.386Z,32.10
2023-01-25T23:23:03.428Z,30.10
2023-01-25T23:25:32.554Z,29.10
2023-01-25T23:28:01.512Z,22.20
2023-01-25T23:30:30.243Z,14.90
2023-01-25T23:32:59.054Z,15.50
2023-01-25T23:35:28.240Z,19.80
2023-01-25T23:37:57.221Z,19.70
2023-01-25T23:40:26.721Z,24.30
2023-01-25T23:42:56.549Z,17.80
2023-01-25T23:45:25.881Z,14.60
2023-01-25T23:47:54.724Z,15.90
2023-01-25T23:50:23.724Z,17.90
2023-01-25T23:52:53.187Z,18.70
2023-01-25T23:55:22.546Z,18.10
2023-01-25T23:57:53.792Z,18.30
